Time;durP1;ratioP1;P1;durP2;ratioP2;P2;SDS_P1;SDS_P2;PMS_P1;PMS_P2;Temp;Humidity;BMP_temperature;BMP_pressure;BME280_temperature;BME280_humidity;BME280_pressure;Samples;Min_cycle;Max_cycle;Signal;HPM_P1;HPM_P2
2022/02/15 00:00:14;;;;;;;1.42;0.70;;;;;;;26.60;27.79;95891.34;4982564;28;20504;-61
2022/02/15 00:02:40;;;;;;;0.63;0.40;;;;;;;26.58;27.88;95890.59;4992152;28;20029;-61
2022/02/15 00:05:05;;;;;;;1.45;0.50;;;;;;;26.59;27.92;95897.53;4991420;28;20046;-62
2022/02/15 00:07:30;;;;;;;0.50;0.40;;;;;;;26.59;27.99;95897.53;4985246;28;20029;-61
2022/02/15 00:09:56;;;;;;;0.93;0.47;;;;;;;26.57;28.01;95904.69;4986260;28;20702;-62
2022/02/15 00:12:21;;;;;;;1.67;0.60;;;;;;;26.59;27.98;95897.53;4990538;28;20132;-62
2022/02/15 00:14:47;;;;;;;6.35;0.40;;;;;;;26.59;27.86;95902.78;4988411;28;20695;-62
2022/02/15 00:17:12;;;;;;;0.63;0.30;;;;;;;26.59;27.75;95896.72;4994697;28;20033;-61
2022/02/15 00:19:38;;;;;;;1.25;0.47;;;;;;;26.60;27.87;95893.13;4989821;28;20025;-61
2022/02/15 00:22:04;;;;;;;1.35;0.55;;;;;;;26.58;27.88;95895.88;4990979;28;20041;-62
2022/02/15 00:24:29;;;;;;;0.40;0.40;;;;;;;26.58;27.93;95895.88;5001315;28;20033;-62
2022/02/15 00:26:55;;;;;;;2.03;0.50;;;;;;;26.58;27.86;95890.59;5002893;28;20482;-63
2022/02/15 00:29:20;;;;;;;1.05;0.50;;;;;;;26.58;27.88;95893.22;4998229;28;20853;-62
2022/02/15 00:31:46;;;;;;;0.65;0.30;;;;;;;26.58;27.91;95898.50;5005552;28;20061;-62
2022/02/15 00:34:11;;;;;;;1.83;0.40;;;;;;;26.59;28.01;95902.78;5006648;28;20087;-62
2022/02/15 00:36:36;;;;;;;4.13;0.52;;;;;;;26.58;28.04;95890.59;5004947;28;20036;-61
2022/02/15 00:39:02;;;;;;;1.30;0.50;;;;;;;26.58;27.95;95892.41;4995391;28;20029;-62
2022/02/15 00:41:27;;;;;;;1.67;0.40;;;;;;;26.57;28.01;95888.09;4987489;28;20033;-61
2022/02/15 00:43:53;;;;;;;1.88;0.30;;;;;;;26.57;27.85;95888.94;4991819;28;20030;-62
2022/02/15 00:46:18;;;;;;;0.85;0.40;;;;;;;26.57;27.82;95896.81;4986545;28;20033;-62
2022/02/15 00:48:44;;;;;;;0.82;0.40;;;;;;;26.58;27.99;95895.03;4989197;28;20767;-62
2022/02/15 00:51:09;;;;;;;0.50;0.22;;;;;;;26.57;27.98;95894.19;4990630;28;20455;-61
2022/02/15 00:53:34;;;;;;;1.50;0.40;;;;;;;26.56;27.95;95882.00;4994489;28;20041;-61
2022/02/15 00:56:00;;;;;;;1.73;0.47;;;;;;;26.56;27.99;95882.00;5007632;28;20025;-61
2022/02/15 00:58:25;;;;;;;1.42;0.40;;;;;;;26.56;27.84;95881.16;4993476;28;20484;-63
2022/02/15 01:00:51;;;;;;;0.80;0.38;;;;;;;26.56;27.90;95891.66;4988237;28;22332;-61
2022/02/15 01:03:16;;;;;;;1.25;0.50;;;;;;;26.56;27.93;95896.94;4986610;28;23737;-61
2022/02/15 01:05:42;;;;;;;1.85;0.50;;;;;;;26.55;27.89;95901.31;5006210;28;20029;-62
2022/02/15 01:08:08;;;;;;;1.15;0.38;;;;;;;26.55;27.86;95901.31;4989843;28;20111;-62
2022/02/15 01:10:33;;;;;;;1.27;0.30;;;;;;;26.56;27.91;95908.28;4974750;28;20038;-62
2022/02/15 01:12:59;;;;;;;0.60;0.22;;;;;;;26.55;27.44;95913.66;4991559;28;20029;-62
2022/02/15 01:15:24;;;;;;;1.02;0.40;;;;;;;26.54;27.82;95909.34;4997727;28;20040;-61
2022/02/15 01:17:50;;;;;;;0.65;0.20;;;;;;;26.55;27.82;95917.09;4975696;28;20144;-61
2022/02/15 01:20:15;;;;;;;0.65;0.30;;;;;;;26.54;27.96;95918.03;4994096;28;20045;-61
2022/02/15 01:22:40;;;;;;;0.82;0.40;;;;;;;26.54;28.12;95917.22;4994676;28;20033;-61
2022/02/15 01:25:06;;;;;;;0.47;0.38;;;;;;;26.50;27.94;95908.69;4957679;28;20673;-60
2022/02/15 01:27:32;;;;;;;1.45;0.52;;;;;;;26.54;27.76;95914.59;4992685;28;20029;-62
2022/02/15 01:29:57;;;;;;;1.30;0.47;;;;;;;26.54;27.97;95912.78;4998733;28;20072;-62
2022/02/15 01:32:23;;;;;;;0.68;0.43;;;;;;;26.52;27.88;95912.06;5010609;28;20132;-62
2022/02/15 01:34:48;;;;;;;0.60;0.40;;;;;;;26.54;27.83;95915.41;4993539;28;20036;-63
2022/02/15 01:37:13;;;;;;;0.20;0.20;;;;;;;26.53;27.81;95907.63;4995948;28;20579;-62
2022/02/15 01:39:39;;;;;;;1.05;0.35;;;;;;;26.52;27.91;95904.19;5013496;28;20014;-62
2022/02/15 01:42:04;;;;;;;0.50;0.30;;;;;;;26.52;27.91;95917.31;4991599;28;20025;-62
2022/02/15 01:44:30;;;;;;;0.55;0.30;;;;;;;26.52;27.93;95912.06;5012789;28;20038;-62
2022/02/15 01:46:56;;;;;;;0.85;0.30;;;;;;;26.53;27.95;95913.75;4990454;28;20037;-62
2022/02/15 01:49:22;;;;;;;0.17;0.17;;;;;;;26.51;27.92;95907.78;4976653;28;20029;-63
2022/02/15 01:51:47;;;;;;;0.40;0.30;;;;;;;26.52;27.83;95906.81;4986972;28;20182;-61
2022/02/15 01:54:13;;;;;;;0.60;0.50;;;;;;;26.50;27.83;95898.19;4991005;28;20038;-62
2022/02/15 01:56:38;;;;;;;0.30;0.30;;;;;;;26.51;27.85;95892.00;4975370;28;20034;-63
2022/02/15 01:59:04;;;;;;;0.68;0.32;;;;;;;26.51;27.95;95899.88;4995902;28;20061;-62
2022/02/15 02:01:29;;;;;;;1.10;0.50;;;;;;;26.50;27.98;95900.81;4992903;28;20037;-63
2022/02/15 02:03:56;;;;;;;0.57;0.40;;;;;;;26.48;27.75;95900.09;4990217;28;20065;-62
2022/02/15 02:06:21;;;;;;;2.97;0.55;;;;;;;26.49;27.87;95896.50;4991495;28;20029;-62
2022/02/15 02:08:46;;;;;;;0.20;0.20;;;;;;;26.48;27.87;95898.28;4994033;28;20025;-63
2022/02/15 02:11:12;;;;;;;0.43;0.40;;;;;;;26.48;27.87;95897.47;4982759;28;20081;-62
2022/02/15 02:13:37;;;;;;;0.32;0.32;;;;;;;26.49;27.95;95901.78;5009206;28;20980;-62
2022/02/15 02:16:03;;;;;;;0.20;0.20;;;;;;;26.48;28.00;95908.78;5009383;28;20033;-63
2022/02/15 02:18:28;;;;;;;1.20;0.45;;;;;;;26.48;27.98;95894.84;5010757;28;20033;-63
2022/02/15 02:20:54;;;;;;;0.45;0.30;;;;;;;26.47;27.84;95903.69;5006795;28;20060;-63
2022/02/15 02:23:20;;;;;;;0.90;0.20;;;;;;;26.48;27.83;95894.84;5006509;28;20025;-62
2022/02/15 02:25:46;;;;;;;0.30;0.25;;;;;;;26.48;27.90;95892.22;5004565;28;20033;-62
2022/02/15 02:28:11;;;;;;;0.88;0.40;;;;;;;26.48;28.03;95890.41;5009157;28;20037;-61
2022/02/15 02:30:37;;;;;;;0.32;0.25;;;;;;;26.47;27.86;95894.00;4993966;28;20056;-62
2022/02/15 02:33:03;;;;;;;0.40;0.40;;;;;;;26.47;27.77;95904.50;5006831;28;20025;-62
2022/02/15 02:35:28;;;;;;;0.80;0.40;;;;;;;26.48;27.89;95905.34;5004384;28;20038;-61
2022/02/15 02:37:54;;;;;;;1.15;0.30;;;;;;;26.48;27.88;95905.34;5004061;28;20037;-64
2022/02/15 02:40:19;;;;;;;0.15;0.15;;;;;;;26.47;27.97;95907.13;5006317;28;20045;-63
2022/02/15 02:42:45;;;;;;;0.98;0.40;;;;;;;26.47;27.99;95908.94;4995358;28;20029;-61
2022/02/15 02:45:12;;;;;;;0.98;0.43;;;;;;;26.47;27.85;95909.75;4991999;28;20029;-62
2022/02/15 02:47:41;;;;;;;1.95;0.40;;;;;;;26.47;27.92;95904.50;4995872;28;20060;-62
2022/02/15 02:50:07;;;;;;;1.65;0.43;;;;;;;26.46;27.90;95901.97;4992880;28;20132;-63
2022/02/15 02:52:32;;;;;;;0.20;0.20;;;;;;;26.46;27.75;95907.22;4993105;28;20404;-62
2022/02/15 02:54:58;;;;;;;0.90;0.30;;;;;;;26.44;27.88;95909.13;5008771;28;20037;-61
2022/02/15 02:57:23;;;;;;;3.40;0.50;;;;;;;26.46;27.84;95923.00;4997027;28;20048;-63
2022/02/15 02:59:49;;;;;;;0.40;0.30;;;;;;;26.46;27.85;95917.75;4993678;28;20698;-62
2022/02/15 03:02:15;;;;;;;2.40;0.50;;;;;;;26.45;27.88;95926.56;4996339;28;20040;-63
2022/02/15 03:04:40;;;;;;;0.43;0.30;;;;;;;26.45;27.85;95923.94;4987090;28;20233;-63
2022/02/15 03:07:06;;;;;;;2.80;0.63;;;;;;;26.45;27.92;95924.81;5009244;28;20029;-62
2022/02/15 03:09:31;;;;;;;0.50;0.30;;;;;;;26.45;27.98;95923.94;4998523;28;20033;-62
2022/02/15 03:21:34;;;;;;;0.40;0.40;;;;;;;26.42;27.87;95924.16;5021733;28;20044;-30
2022/02/15 03:29:50;;;;;;;0.25;0.25;;;;;;;26.38;27.89;95930.59;4981160;28;20049;-33
2022/02/15 03:32:15;;;;;;;1.65;0.57;;;;;;;26.39;28.07;95937.53;5010643;28;20127;-34
2022/02/15 03:34:40;;;;;;;0.85;0.40;;;;;;;26.38;27.93;95931.41;5007589;28;20138;-33
2022/02/15 03:37:06;;;;;;;0.65;0.40;;;;;;;26.39;28.04;95927.84;5007574;28;20029;-33
2022/02/15 03:39:31;;;;;;;1.02;0.40;;;;;;;26.39;27.91;95929.63;5004418;28;20114;-30
2022/02/15 03:44:41;;;;;;;0.30;0.30;;;;;;;26.38;27.91;95947.19;5006412;28;20037;-28
2022/02/15 03:47:06;;;;;;;0.20;0.20;;;;;;;26.38;27.94;95946.34;5005123;28;20033;-28
2022/02/15 03:49:31;;;;;;;0.63;0.40;;;;;;;26.39;28.01;95953.28;5004584;28;20488;-29
2022/02/15 03:51:57;;;;;;;0.73;0.30;;;;;;;26.38;28.01;95946.34;5007960;28;20041;-30
2022/02/15 03:54:22;;;;;;;2.60;0.40;;;;;;;26.38;27.88;95954.22;5005273;28;20036;-29
2022/02/15 03:56:47;;;;;;;0.80;0.40;;;;;;;26.39;27.99;95956.72;5004990;28;20025;-28
2022/02/15 03:59:14;;;;;;;0.80;0.30;;;;;;;26.39;27.85;95961.16;5005940;28;20753;-31
2022/02/15 04:01:39;;;;;;;0.43;0.35;;;;;;;26.39;27.94;95958.53;5005509;28;20040;-31
2022/02/15 04:04:04;;;;;;;0.28;0.28;;;;;;;26.38;28.02;95968.19;5007035;28;20068;-31
2022/02/15 04:06:30;;;;;;;1.05;0.40;;;;;;;26.37;27.94;95963.88;5006094;28;20099;-31
2022/02/15 04:08:55;;;;;;;0.30;0.30;;;;;;;26.38;27.90;95967.38;5006030;28;20017;-32
2022/02/15 04:11:21;;;;;;;0.40;0.20;;;;;;;26.38;27.90;95968.19;5006209;28;20029;-29
2022/02/15 04:13:46;;;;;;;0.68;0.30;;;;;;;26.38;27.85;95962.13;5005908;28;20039;-30
2022/02/15 04:16:13;;;;;;;0.45;0.20;;;;;;;26.37;27.93;95966.50;5005569;28;20507;-27
2022/02/15 04:18:43;;;;;;;0.32;0.15;;;;;;;26.37;27.92;95970.91;5003872;28;20030;-30
2022/02/15 04:21:12;;;;;;;5.38;0.40;;;;;;;26.38;27.95;95978.69;5005715;28;20033;-30
2022/02/15 04:23:37;;;;;;;0.40;0.20;;;;;;;26.37;27.88;95970.91;5005450;28;20126;-29
2022/02/15 04:26:02;;;;;;;0.73;0.32;;;;;;;26.37;27.89;95970.91;5007934;28;20037;-28
2022/02/15 04:28:28;;;;;;;0.52;0.20;;;;;;;26.35;28.00;95974.50;5004893;28;20041;-29
2022/02/15 04:30:53;;;;;;;0.75;0.30;;;;;;;26.35;27.88;95977.13;5004226;28;20034;-28
2022/02/15 04:33:18;;;;;;;0.30;0.30;;;;;;;26.37;27.81;95973.53;5004228;28;20076;-31
2022/02/15 04:35:44;;;;;;;0.22;0.22;;;;;;;26.36;27.85;95977.97;5006380;28;20042;-30
2022/02/15 04:38:09;;;;;;;0.40;0.30;;;;;;;26.35;27.88;95978.91;5007794;28;20018;-32
2022/02/15 04:40:35;;;;;;;0.80;0.25;;;;;;;26.35;27.86;95995.50;5002104;28;20486;-27
2022/02/15 04:43:00;;;;;;;0.50;0.30;;;;;;;26.35;27.91;95998.13;5005534;28;20038;-33
2022/02/15 04:45:25;;;;;;;0.30;0.30;;;;;;;26.35;27.88;95990.25;5004766;28;20045;-33
2022/02/15 04:47:51;;;;;;;0.82;0.40;;;;;;;26.35;27.94;96000.75;5004992;28;20629;-30
2022/02/15 04:50:16;;;;;;;0.70;0.30;;;;;;;26.34;28.01;95999.09;5007775;28;20029;-28
2022/02/15 04:52:41;;;;;;;1.55;0.38;;;;;;;26.35;27.85;96000.75;5010103;28;20064;-28
2022/02/15 04:55:07;;;;;;;0.28;0.28;;;;;;;26.34;27.75;95992.97;5009608;28;20029;-30
2022/02/15 04:57:33;;;;;;;0.90;0.40;;;;;;;26.33;27.95;96002.66;5008138;28;20110;-31
2022/02/15 04:59:58;;;;;;;0.55;0.43;;;;;;;26.34;27.90;96004.34;5007929;28;20610;-30
2022/02/15 05:02:24;;;;;;;0.20;0.20;;;;;;;26.33;27.94;96001.81;5010610;28;20033;-27
2022/02/15 05:04:49;;;;;;;0.30;0.30;;;;;;;26.33;27.92;96013.19;5012676;28;20051;-30
2022/02/15 05:07:16;;;;;;;0.30;0.28;;;;;;;26.33;27.85;96015.81;5014677;28;20483;-29
2022/02/15 05:09:41;;;;;;;0.30;0.30;;;;;;;26.33;28.00;96017.56;5015325;28;20025;-33
2022/02/15 05:12:07;;;;;;;0.35;0.20;;;;;;;26.33;27.96;96022.81;5013818;28;20553;-30
2022/02/15 05:14:32;;;;;;;0.45;0.28;;;;;;;26.32;27.86;96029.84;5011617;28;20033;-30
2022/02/15 05:16:58;;;;;;;0.47;0.30;;;;;;;26.31;28.01;96025.56;5009887;28;20037;-28
2022/02/15 05:19:23;;;;;;;0.50;0.25;;;;;;;26.31;27.90;96025.56;5007917;28;20029;-28
2022/02/15 05:21:49;;;;;;;0.40;0.20;;;;;;;26.31;27.90;96030.81;5014262;28;20566;-30
2022/02/15 05:24:14;;;;;;;1.35;0.17;;;;;;;26.31;28.05;96024.72;5015296;28;20091;-33
2022/02/15 05:26:39;;;;;;;2.60;0.65;;;;;;;26.31;27.92;96022.94;5012532;28;20029;-29
2022/02/15 05:29:05;;;;;;;1.00;0.60;;;;;;;26.30;28.09;96023.03;5015448;28;20032;-30
2022/02/15 05:31:30;;;;;;;0.70;0.60;;;;;;;26.30;28.28;96026.50;5016348;28;20399;-30
2022/02/15 05:33:56;;;;;;;0.63;0.40;;;;;;;26.28;28.22;96036.25;5014084;28;20033;-30
2022/02/15 05:36:21;;;;;;;1.27;0.35;;;;;;;26.29;28.15;96037.97;5015659;28;20236;-30
2022/02/15 05:38:46;;;;;;;0.65;0.40;;;;;;;26.28;28.05;96036.25;5014854;28;20184;-30
2022/02/15 05:41:12;;;;;;;1.30;0.47;;;;;;;26.27;28.08;96034.59;5015048;28;20615;-30
2022/02/15 05:43:37;;;;;;;1.95;0.40;;;;;;;26.27;28.20;96039.84;5014012;28;20182;-31
2022/02/15 05:46:03;;;;;;;0.40;0.40;;;;;;;26.26;28.03;96038.16;5015850;28;20036;-31
2022/02/15 05:48:28;;;;;;;0.47;0.40;;;;;;;26.27;28.10;96049.53;5015243;28;20028;-29
2022/02/15 05:50:55;;;;;;;1.02;0.60;;;;;;;26.27;28.00;96049.53;5014265;28;20034;-30
2022/02/15 05:53:24;;;;;;;0.98;0.40;;;;;;;26.27;27.97;96050.34;5009210;28;20033;-31
2022/02/15 05:55:52;;;;;;;0.22;0.22;;;;;;;26.27;27.99;96050.34;5005937;28;20029;-33
2022/02/15 05:58:20;;;;;;;0.73;0.50;;;;;;;26.27;28.07;96050.34;5007892;28;20060;-32
2022/02/15 06:00:46;;;;;;;0.95;0.22;;;;;;;26.27;27.95;96050.34;4988420;28;21080;-31
2022/02/15 06:05:55;;;;;;;0.70;0.50;;;;;;;26.28;27.94;96061.69;5009780;28;20066;-30
2022/02/15 06:08:20;;;;;;;1.00;0.32;;;;;;;26.26;27.96;96056.53;5006555;28;20519;-30
2022/02/15 06:10:46;;;;;;;0.20;0.20;;;;;;;26.27;28.08;96055.59;5006987;28;20025;-30
2022/02/15 06:13:15;;;;;;;1.00;0.32;;;;;;;26.27;27.96;96065.28;5006937;28;20025;-31
2022/02/15 06:15:40;;;;;;;0.77;0.32;;;;;;;26.26;28.08;96069.69;5006646;28;20518;-34
2022/02/15 06:18:05;;;;;;;0.95;0.40;;;;;;;26.26;28.10;96074.94;5008983;28;20029;-31
2022/02/15 06:20:31;;;;;;;0.60;0.30;;;;;;;26.26;28.01;96074.94;5007720;28;20479;-31
2022/02/15 06:22:56;;;;;;;0.28;0.25;;;;;;;26.26;28.01;96077.56;5007298;28;20045;-30
2022/02/15 06:25:22;;;;;;;0.70;0.38;;;;;;;26.27;28.07;96086.28;5006413;28;20131;-30
2022/02/15 06:27:47;;;;;;;1.98;0.52;;;;;;;26.26;28.09;96095.94;4989604;28;20541;-31
2022/02/15 06:30:12;;;;;;;0.52;0.40;;;;;;;26.26;28.09;96095.94;5009192;28;20040;-30
2022/02/15 06:32:38;;;;;;;0.20;0.20;;;;;;;26.25;27.97;96102.13;5006528;28;20099;-30
2022/02/15 06:35:04;;;;;;;0.75;0.30;;;;;;;26.25;27.98;96104.75;5006320;28;20496;-32
2022/02/15 06:37:29;;;;;;;1.02;0.50;;;;;;;26.25;28.01;96109.13;5006232;28;20037;-31
2022/02/15 06:39:55;;;;;;;0.45;0.22;;;;;;;26.24;27.93;96108.31;5005503;28;20072;-30
2022/02/15 06:42:21;;;;;;;0.50;0.43;;;;;;;26.25;28.19;96110.00;5005999;28;20029;-34
2022/02/15 06:44:46;;;;;;;0.30;0.30;;;;;;;26.26;28.03;96116.09;5007749;28;20071;-29
2022/02/15 06:47:12;;;;;;;0.40;0.30;;;;;;;26.23;27.94;96115.34;5004893;28;20041;-31
2022/02/15 06:49:37;;;;;;;0.68;0.40;;;;;;;26.25;27.96;96119.66;5005342;28;20025;-30
2022/02/15 06:52:03;;;;;;;0.68;0.30;;;;;;;26.24;28.07;96118.81;5010608;28;20037;-30
2022/02/15 06:54:28;;;;;;;0.30;0.20;;;;;;;26.25;27.86;96125.75;5013722;28;20557;-32
2022/02/15 06:56:54;;;;;;;0.20;0.20;;;;;;;26.24;28.05;96134.56;5007813;28;20037;-31
2022/02/15 06:59:20;;;;;;;0.70;0.43;;;;;;;26.25;27.97;96145.91;5007480;28;20021;-29
2022/02/15 07:01:45;;;;;;;0.70;0.22;;;;;;;26.26;27.98;96150.25;5014036;28;20041;-28
2022/02/15 07:04:11;;;;;;;0.65;0.30;;;;;;;26.25;28.03;96156.41;5011527;28;20029;-31
2022/02/15 07:06:38;;;;;;;0.30;0.30;;;;;;;26.23;27.97;96154.72;5012131;28;20531;-28
2022/02/15 07:09:03;;;;;;;0.73;0.20;;;;;;;26.24;27.98;96155.59;5010485;28;20042;-27
2022/02/15 07:11:28;;;;;;;0.25;0.25;;;;;;;26.25;28.00;96157.25;5011966;28;20116;-30
2022/02/15 07:13:54;;;;;;;0.32;0.20;;;;;;;26.25;27.99;96156.41;5011416;28;20045;-31
2022/02/15 07:16:19;;;;;;;0.35;0.22;;;;;;;26.25;27.97;96153.78;5007879;28;20029;-31
2022/02/15 07:18:45;;;;;;;0.30;0.30;;;;;;;26.25;27.89;96172.16;5010286;28;20037;-33
2022/02/15 07:21:10;;;;;;;0.30;0.30;;;;;;;26.25;28.01;96180.91;5010380;28;20029;-33
2022/02/15 07:23:36;;;;;;;0.30;0.30;;;;;;;26.25;27.87;96183.53;5009963;28;20103;-31
2022/02/15 07:26:01;;;;;;;1.65;0.50;;;;;;;26.25;28.03;96178.28;5009415;28;20040;-33
2022/02/15 07:28:28;;;;;;;2.05;0.40;;;;;;;26.24;28.13;96181.84;4992041;28;20021;-31
2022/02/15 07:30:54;;;;;;;2.35;0.50;;;;;;;26.26;28.03;96179.13;5013424;28;20028;-32
2022/02/15 07:33:19;;;;;;;2.00;0.60;;;;;;;26.26;27.99;96169.47;5013068;28;20021;-30
2022/02/15 07:35:45;;;;;;;3.83;0.90;;;;;;;26.25;28.07;96183.53;4992172;28;20029;-29
2022/02/15 07:38:10;;;;;;;3.97;0.90;;;;;;;26.25;28.03;96187.94;5009786;28;20047;-28
2022/02/15 07:40:36;;;;;;;4.40;1.38;;;;;;;26.25;28.09;96199.28;5002623;28;20550;-30
2022/02/15 07:43:01;;;;;;;3.63;1.40;;;;;;;26.24;28.04;96202.88;5003583;28;20099;-28
2022/02/15 07:45:26;;;;;;;3.47;1.40;;;;;;;26.24;27.93;96208.13;4986949;28;20021;-28
2022/02/15 07:47:52;;;;;;;5.05;1.48;;;;;;;26.23;27.99;96214.28;5003486;28;20087;-31
2022/02/15 07:50:18;;;;;;;7.05;1.50;;;;;;;26.23;27.97;96211.66;5005318;28;20029;-29
2022/02/15 07:52:44;;;;;;;5.63;1.80;;;;;;;26.23;27.99;96217.75;5006955;28;20399;-30
2022/02/15 07:55:10;;;;;;;6.68;1.90;;;;;;;26.24;27.92;96218.63;5005732;28;20025;-29
2022/02/15 07:57:35;;;;;;;8.13;2.05;;;;;;;26.24;28.03;96221.25;4991287;28;20041;-28
2022/02/15 08:00:01;;;;;;;8.57;2.33;;;;;;;26.23;28.02;96223.03;5003753;28;20487;-35
2022/02/15 08:02:26;;;;;;;6.85;2.33;;;;;;;26.25;28.07;96228.19;5005512;28;20036;-34
2022/02/15 08:04:52;;;;;;;5.28;2.15;;;;;;;26.25;28.00;96229.94;5007676;28;20423;-37
2022/02/15 08:07:17;;;;;;;3.85;1.83;;;;;;;26.26;28.08;96229.88;5004439;28;20440;-36
2022/02/15 08:09:42;;;;;;;5.47;1.98;;;;;;;26.26;27.99;96227.25;5004816;28;20025;-34
2022/02/15 08:12:11;;;;;;;3.92;1.77;;;;;;;26.26;28.11;96229.88;5005603;28;20113;-31
2022/02/15 08:14:36;;;;;;;5.45;1.75;;;;;;;26.26;27.96;96232.50;5004394;28;20030;-29
2022/02/15 08:17:02;;;;;;;4.00;1.70;;;;;;;26.27;27.87;96228.13;5007682;28;20209;-31
2022/02/15 08:19:27;;;;;;;5.25;1.63;;;;;;;26.26;27.88;96231.66;5006291;28;20037;-27
2022/02/15 08:21:54;;;;;;;4.05;2.30;;;;;;;26.26;27.81;96237.75;5006670;28;20717;-30
2022/02/15 08:24:20;;;;;;;4.05;1.70;;;;;;;26.26;27.90;96247.41;5009319;28;20037;-29
2022/02/15 08:26:45;;;;;;;4.03;1.70;;;;;;;26.27;27.80;96243.88;5006983;28;20040;-32
2022/02/15 08:29:12;;;;;;;5.28;1.75;;;;;;;26.25;27.89;96249.19;5003325;28;20021;-32
2022/02/15 08:31:38;;;;;;;5.43;2.00;;;;;;;26.27;27.91;96254.38;5007448;28;20760;-31
2022/02/15 08:34:04;;;;;;;4.40;1.80;;;;;;;26.27;28.03;96260.47;5012328;28;20064;-31
2022/02/15 08:36:29;;;;;;;4.40;1.73;;;;;;;26.28;27.99;96258.69;5011861;28;20037;-30
2022/02/15 08:38:55;;;;;;;5.57;2.00;;;;;;;26.28;27.91;96267.38;5007586;28;20573;-32
2022/02/15 08:41:20;;;;;;;5.07;1.60;;;;;;;26.28;28.04;96266.56;5006930;28;20041;-30
2022/02/15 08:43:45;;;;;;;4.97;1.58;;;;;;;26.28;28.01;96264.75;4993428;28;20033;-32
2022/02/15 08:46:11;;;;;;;4.68;1.90;;;;;;;26.29;27.99;96263.84;5008437;28;20041;-33
2022/02/15 08:48:36;;;;;;;4.15;1.58;;;;;;;26.29;28.02;96258.59;5010716;28;20032;-30
2022/02/15 08:51:02;;;;;;;2.88;1.45;;;;;;;26.29;27.94;96258.59;5008834;28;20042;-30
2022/02/15 08:53:27;;;;;;;6.47;1.77;;;;;;;26.30;27.96;96262.91;5008199;28;20057;-31
2022/02/15 08:55:54;;;;;;;5.43;1.65;;;;;;;26.30;27.97;96269.91;5007756;28;20025;-27
2022/02/15 08:58:19;;;;;;;6.40;1.80;;;;;;;26.30;27.95;96275.19;5010714;28;20025;-30
2022/02/15 09:00:45;;;;;;;3.55;1.42;;;;;;;26.31;27.89;96282.97;5009014;28;20036;-32
2022/02/15 09:03:10;;;;;;;4.13;1.55;;;;;;;26.32;27.94;96287.28;5008583;28;20053;-29
2022/02/15 09:05:35;;;;;;;3.08;1.55;;;;;;;26.33;28.07;96291.59;5009569;28;20144;-33
2022/02/15 09:08:01;;;;;;;3.38;1.92;;;;;;;26.34;28.00;96295.06;5009770;28;20148;-32
2022/02/15 09:10:26;;;;;;;3.42;1.40;;;;;;;26.34;28.13;96292.44;5008114;28;20029;-32
2022/02/15 09:12:52;;;;;;;3.22;1.35;;;;;;;26.35;27.97;96296.75;5009077;28;20025;-29
2022/02/15 09:15:17;;;;;;;3.70;1.27;;;;;;;26.34;28.07;96292.44;5007121;28;20622;-31
2022/02/15 09:17:43;;;;;;;2.75;1.10;;;;;;;26.35;27.78;96294.97;5012416;28;20883;-31
2022/02/15 09:20:12;;;;;;;4.32;0.93;;;;;;;26.27;25.68;96291.16;5012459;28;20808;-30
2022/02/15 09:22:38;;;;;;;1.77;0.80;;;;;;;26.10;24.81;96290.38;5012136;28;20162;-31
2022/02/15 09:25:04;;;;;;;1.80;0.88;;;;;;;25.91;23.85;96290.69;5015244;28;20061;-30
2022/02/15 09:27:30;;;;;;;1.88;0.90;;;;;;;25.72;24.16;96297.06;5012876;28;20112;-32
2022/02/15 09:29:55;;;;;;;4.32;1.13;;;;;;;25.59;24.58;96301.38;5010374;28;20045;-29
2022/02/15 09:32:21;;;;;;;5.88;1.15;;;;;;;25.50;24.78;96300.94;5014842;28;20388;-31
2022/02/15 09:34:46;;;;;;;1.60;1.20;;;;;;;25.45;24.81;96303.00;5012155;28;20120;-30
2022/02/15 09:37:11;;;;;;;4.00;1.30;;;;;;;25.43;25.30;96307.47;5014223;28;20629;-29
2022/02/15 09:39:37;;;;;;;2.80;1.27;;;;;;;25.43;25.58;96307.47;5012362;28;20053;-30
2022/02/15 09:42:02;;;;;;;2.75;1.02;;;;;;;25.44;25.67;96309.19;5012712;28;20029;-30
2022/02/15 09:44:28;;;;;;;4.90;1.50;;;;;;;25.47;25.80;96308.97;5015786;28;20434;-30
2022/02/15 09:46:54;;;;;;;3.55;1.48;;;;;;;25.49;25.83;96309.75;5014007;28;20484;-30
2022/02/15 09:52:04;;;;;;;3.97;1.40;;;;;;;25.56;26.01;96303.22;5005476;28;20040;-31
2022/02/15 09:54:30;;;;;;;4.45;1.65;;;;;;;25.60;26.20;96298.66;5009100;28;20041;-31
2022/02/15 09:56:55;;;;;;;10.13;2.50;;;;;;;25.64;26.12;96301.94;5008038;28;20029;-31
2022/02/15 09:59:21;;;;;;;5.78;2.20;;;;;;;25.68;26.32;96306.91;5006993;28;20029;-30
2022/02/15 10:01:46;;;;;;;8.43;2.60;;;;;;;25.72;26.28;96310.19;5008122;28;20436;-28
2022/02/15 10:04:12;;;;;;;9.73;3.10;;;;;;;25.73;26.24;96304.00;5005733;28;20198;-32
2022/02/15 10:06:40;;;;;;;10.65;3.13;;;;;;;25.75;26.37;96310.00;5006919;28;20037;-31
2022/02/15 10:09:06;;;;;;;7.35;2.92;;;;;;;25.76;26.50;96306.44;5014194;28;20029;-32
2022/02/15 10:11:35;;;;;;;15.82;2.60;;;;;;;25.76;26.48;96313.47;5008712;28;20413;-32
2022/02/15 10:14:01;;;;;;;6.90;1.77;;;;;;;25.77;26.14;96321.25;5007070;28;20108;-32
2022/02/15 10:16:26;;;;;;;3.30;1.40;;;;;;;25.77;25.73;96321.25;5013015;28;20040;-29
2022/02/15 10:18:55;;;;;;;2.90;1.52;;;;;;;25.76;25.40;96324.81;4979045;28;20060;-31
2022/02/15 10:21:21;;;;;;;3.70;1.35;;;;;;;25.75;25.28;96317.88;4995575;28;20445;-31
2022/02/15 10:23:51;;;;;;;3.47;1.77;;;;;;;25.76;25.79;96334.44;5013095;28;20032;-30
2022/02/15 10:26:16;;;;;;;6.75;2.00;;;;;;;25.76;26.01;96340.56;5011635;28;20759;-29
2022/02/15 10:28:42;;;;;;;6.43;1.80;;;;;;;25.77;26.06;96336.13;5009909;28;20034;-33
2022/02/15 10:31:07;;;;;;;4.80;2.00;;;;;;;25.79;26.47;96345.63;4997363;28;20084;-30
2022/02/15 10:33:38;;;;;;;6.78;1.67;;;;;;;25.82;26.41;96345.44;4983214;28;20037;-30
2022/02/15 10:36:05;;;;;;;6.38;1.95;;;;;;;25.83;26.69;96352.34;5007971;28;20026;-32
2022/02/15 10:38:33;;;;;;;4.93;1.90;;;;;;;25.87;26.89;96357.44;4996151;28;20092;-31
2022/02/15 10:41:00;;;;;;;3.25;2.10;;;;;;;25.90;26.91;96352.00;5013990;28;20029;-32
2022/02/15 10:43:27;;;;;;;4.00;1.60;;;;;;;25.92;26.99;96358.84;5009099;28;20087;-31
2022/02/15 10:45:52;;;;;;;4.57;1.60;;;;;;;25.94;27.07;96356.13;5011012;28;20131;-32
2022/02/15 10:48:27;;;;;;;7.38;2.08;;;;;;;25.97;27.16;96358.53;5014687;28;20025;-32
2022/02/15 10:50:53;;;;;;;4.28;1.75;;;;;;;25.99;27.17;96364.56;5012653;28;20049;-34
2022/02/15 10:53:18;;;;;;;4.10;1.60;;;;;;;26.01;27.21;96370.56;4996781;28;20045;-34
2022/02/15 10:55:43;;;;;;;7.13;1.60;;;;;;;26.04;27.24;96369.53;4994592;28;20533;-32
2022/02/15 10:58:09;;;;;;;4.80;1.48;;;;;;;26.06;27.21;96367.66;4991108;28;20037;-34
2022/02/15 11:00:35;;;;;;;6.43;1.75;;;;;;;26.07;27.33;96370.19;4977386;28;20025;-30
2022/02/15 11:03:00;;;;;;;6.20;1.80;;;;;;;26.09;27.39;96370.94;5004150;28;20052;-33
2022/02/15 11:05:25;;;;;;;5.82;1.92;;;;;;;26.08;27.35;96365.78;5006204;28;20038;-32
2022/02/15 11:07:51;;;;;;;10.02;3.20;;;;;;;26.12;27.43;96374.31;4983680;28;20559;-30
2022/02/15 11:10:27;;;;;;;19.20;4.93;;;;;;;26.13;27.28;96373.38;4987913;28;20033;-31
2022/02/15 11:12:57;;;;;;;20.73;4.53;;;;;;;26.15;27.30;96371.50;4980662;28;20049;-32
2022/02/15 11:15:26;;;;;;;15.50;4.90;;;;;;;26.15;27.37;96374.97;4990981;28;20030;-31
2022/02/15 11:17:54;;;;;;;20.67;4.50;;;;;;;26.16;27.59;96378.47;5004328;28;20028;-33
2022/02/15 11:20:21;;;;;;;14.15;4.35;;;;;;;26.17;27.59;96380.13;5004282;28;20136;-31
2022/02/15 11:22:48;;;;;;;19.23;4.30;;;;;;;26.18;27.46;96381.81;5007447;28;20041;-31
2022/02/15 11:25:14;;;;;;;17.63;3.83;;;;;;;26.19;27.45;96384.34;5008315;28;20049;-32
2022/02/15 11:27:39;;;;;;;14.50;4.05;;;;;;;26.20;27.50;96391.28;5004530;28;20404;-31
2022/02/15 11:30:13;;;;;;;17.75;4.40;;;;;;;26.21;27.60;96386.91;5007699;28;20183;-32
2022/02/15 11:32:42;;;;;;;11.25;4.28;;;;;;;26.21;27.51;96392.16;5005192;28;20040;-30
2022/02/15 11:35:09;;;;;;;12.63;3.90;;;;;;;26.22;27.63;96383.31;5007017;28;20033;-34
2022/02/15 11:37:35;;;;;;;13.93;3.92;;;;;;;26.23;27.71;96390.25;5011639;28;20477;-30
2022/02/15 11:40:06;;;;;;;12.77;3.90;;;;;;;26.23;27.58;96383.22;5011602;28;20025;-29
2022/02/15 11:42:41;;;;;;;;;;;;;;;26.25;27.79;96387.53;5013654;28;20037;-30
2022/02/15 11:45:17;;;;;;;13.48;4.15;;;;;;;26.26;27.70;96386.63;5012622;28;20758;-33
2022/02/15 11:47:46;;;;;;;12.55;3.75;;;;;;;26.26;27.64;96384.00;5012794;28;20060;-29
2022/02/15 11:50:14;;;;;;;12.18;3.67;;;;;;;26.27;27.81;96381.28;5013118;28;20114;-30